Time;durP1;ratioP1;P1;durP2;ratioP2;P2;SDS_P1;SDS_P2;PMS_P1;PMS_P2;Temp;Humidity;BMP_temperature;BMP_pressure;BME280_temperature;BME280_humidity;BME280_pressure;Samples;Min_cycle;Max_cycle;Signal;HPM_P1;HPM_P2
2023/01/13 00:00:07;;;;;;;22.98;3.72;;;9.00;99.90;;;;;;5134960;27;20088;-82
2023/01/13 00:02:33;;;;;;;35.08;4.30;;;9.00;99.90;;;;;;5116884;27;20051;-82
2023/01/13 00:04:59;;;;;;;21.10;3.80;;;9.00;99.90;;;;;;5117592;27;20050;-82
2023/01/13 00:07:24;;;;;;;24.48;3.78;;;8.90;99.90;;;;;;5144432;27;20034;-82
2023/01/13 00:09:50;;;;;;;22.10;3.60;;;8.90;99.90;;;;;;5122852;27;20038;-82
2023/01/13 00:12:15;;;;;;;19.63;4.00;;;8.80;99.90;;;;;;5131231;27;20039;-82
2023/01/13 00:14:41;;;;;;;20.15;3.58;;;9.40;99.90;;;;;;5115471;27;20464;-82
2023/01/13 00:17:07;;;;;;;30.92;4.80;;;8.80;99.90;;;;;;5120680;27;20031;-81
2023/01/13 00:19:32;;;;;;;27.10;4.63;;;8.70;99.90;;;;;;5117320;27;20087;-82
2023/01/13 00:21:58;;;;;;;22.42;4.32;;;8.70;99.90;;;;;;5128337;27;20510;-82
2023/01/13 00:24:24;;;;;;;25.05;4.68;;;8.70;99.90;;;;;;5112945;27;20039;-82
2023/01/13 00:26:49;;;;;;;21.60;4.47;;;8.70;99.90;;;;;;5121189;27;20046;-82
2023/01/13 00:29:15;;;;;;;25.00;4.32;;;8.70;99.90;;;;;;5119720;27;20116;-82
2023/01/13 00:31:41;;;;;;;25.55;4.28;;;8.60;99.90;;;;;;5102720;27;20038;-82
2023/01/13 00:34:06;;;;;;;26.95;4.50;;;8.60;99.90;;;;;;5123968;27;20042;-82
2023/01/13 00:36:32;;;;;;;27.30;4.45;;;8.60;99.90;;;;;;5112512;27;20164;-82
2023/01/13 00:38:58;;;;;;;21.77;4.70;;;8.50;99.90;;;;;;5107665;27;20067;-82
2023/01/13 00:41:26;;;;;;;22.52;4.10;;;8.50;99.90;;;;;;5120911;27;20039;-80
2023/01/13 00:43:51;;;;;;;21.38;4.32;;;8.40;99.90;;;;;;5119429;27;20490;-80
2023/01/13 00:46:19;;;;;;;23.90;4.40;;;8.40;99.90;;;;;;5134970;27;20039;-80
2023/01/13 00:48:45;;;;;;;29.60;4.63;;;8.40;99.90;;;;;;5136982;27;20051;-81
2023/01/13 00:51:16;;;;;;;29.60;4.55;;;8.30;99.90;;;;;;5101938;27;20100;-81
2023/01/13 00:53:47;;;;;;;24.30;3.85;;;8.30;99.90;;;;;;5125957;27;20031;-81
2023/01/13 00:56:14;;;;;;;27.20;4.72;;;8.30;99.90;;;;;;5115658;27;20041;-80
2023/01/13 00:58:40;;;;;;;24.65;3.97;;;8.20;99.90;;;;;;5116434;27;20043;-81
2023/01/13 01:01:09;;;;;;;33.78;4.40;;;8.20;99.90;;;;;;5099065;27;20091;-81
2023/01/13 01:03:35;;;;;;;24.33;4.57;;;8.20;99.90;;;;;;5101677;27;20043;-81
2023/01/13 01:06:14;;;;;;;25.45;4.65;;;8.20;99.90;;;;;;5113492;27;20039;-80
2023/01/13 01:08:41;;;;;;;35.15;4.80;;;8.50;99.90;;;;;;5115418;27;20039;-80
2023/01/13 01:11:16;;;;;;;34.17;5.22;;;8.20;99.90;;;;;;5119066;27;20115;-80
2023/01/13 01:13:44;;;;;;;27.23;5.05;;;8.20;99.90;;;;;;5115987;27;20078;-81
2023/01/13 01:16:12;;;;;;;34.17;5.57;;;8.10;99.90;;;;;;5118095;28;20051;-81
2023/01/13 01:18:40;;;;;;;29.08;5.47;;;8.10;99.90;;;;;;5123434;27;20548;-81
2023/01/13 01:21:07;;;;;;;32.97;5.00;;;8.20;99.90;;;;;;5124191;27;20070;-81
2023/01/13 01:23:34;;;;;;;42.65;6.43;;;8.10;99.90;;;;;;5119491;28;20047;-80
2023/01/13 01:26:05;;;;;;;31.73;5.35;;;8.10;99.90;;;;;;5114015;28;20088;-81
2023/01/13 01:28:32;;;;;;;29.27;5.45;;;8.10;99.90;;;;;;5109971;28;20023;-81
2023/01/13 01:30:58;;;;;;;32.40;5.10;;;8.00;99.90;;;;;;5134842;27;20079;-80
2023/01/13 01:33:25;;;;;;;32.63;6.10;;;8.00;99.90;;;;;;5134285;27;20078;-80
2023/01/13 01:35:52;;;;;;;30.70;5.32;;;8.00;99.90;;;;;;5138906;27;20039;-81
2023/01/13 01:38:20;;;;;;;24.75;5.07;;;8.00;99.90;;;;;;5120931;27;20466;-80
2023/01/13 01:40:45;;;;;;;29.38;5.70;;;8.00;99.90;;;;;;5117611;27;20047;-81
2023/01/13 01:46:02;;;;;;;32.70;5.47;;;8.10;99.90;;;;;;5112489;28;20051;-80
2023/01/13 01:48:33;;;;;;;32.00;4.43;;;8.20;99.90;;;;;;5139129;27;20058;-80
2023/01/13 01:50:59;;;;;;;29.75;5.38;;;8.00;99.90;;;;;;5134428;27;20038;-81
2023/01/13 01:53:28;;;;;;;31.88;4.82;;;8.00;99.90;;;;;;5118894;28;20103;-81
2023/01/13 01:55:55;;;;;;;33.08;6.82;;;7.90;99.90;;;;;;5118362;27;20100;-81
2023/01/13 01:58:29;;;;;;;28.50;4.63;;;7.90;99.90;;;;;;5098039;27;20038;-80
2023/01/13 02:00:54;;;;;;;26.92;4.50;;;7.90;99.90;;;;;;5108094;27;20427;-81
2023/01/13 02:03:20;;;;;;;33.28;4.85;;;7.90;99.90;;;;;;5115826;28;20039;-80
2023/01/13 02:05:46;;;;;;;29.13;4.07;;;7.90;99.90;;;;;;5117334;28;20035;-81
2023/01/13 02:08:12;;;;;;;23.33;5.25;;;7.90;99.90;;;;;;5136465;27;20026;-81
2023/01/13 02:10:40;;;;;;;40.83;5.57;;;7.80;99.90;;;;;;5121774;27;20377;-80
2023/01/13 02:13:09;;;;;;;27.95;5.97;;;7.80;99.90;;;;;;5113302;28;20031;-80
2023/01/13 02:15:43;;;;;;;28.00;3.80;;;7.90;99.90;;;;;;5136806;27;20084;-80
2023/01/13 02:18:33;;;;;;;32.63;4.33;;;7.90;99.90;;;;;;5098166;27;20046;-80
2023/01/13 02:21:20;;;;;;;30.95;4.10;;;7.90;99.90;;;;;;5109276;27;20305;-80
2023/01/13 02:27:07;;;;;;;28.50;4.65;;;7.90;99.90;;;;;;5119459;27;20099;-80
2023/01/13 02:32:46;;;;;;;26.98;5.60;;;8.00;99.90;;;;;;5115965;27;20438;-80
2023/01/13 02:35:19;;;;;;;36.35;5.25;;;8.00;99.90;;;;;;5142109;27;20400;-80
2023/01/13 02:37:45;;;;;;;32.83;5.15;;;8.00;99.90;;;;;;5122881;27;20597;-80
2023/01/13 02:40:18;;;;;;;30.13;4.22;;;8.10;99.90;;;;;;5121412;27;20066;-80
2023/01/13 02:46:08;;;;;;;29.15;4.45;;;8.00;99.90;;;;;;5137114;27;20485;-80
2023/01/13 02:48:36;;;;;;;26.13;4.18;;;7.90;99.90;;;;;;5126617;27;20101;-80
2023/01/13 02:51:13;;;;;;;34.97;4.60;;;7.90;99.90;;;;;;5148554;27;20070;-80
2023/01/13 02:53:48;;;;;;;27.83;5.32;;;7.90;99.90;;;;;;5123763;27;20041;-80
2023/01/13 02:56:16;;;;;;;20.83;4.18;;;7.90;99.90;;;;;;5119942;27;20035;-80
2023/01/13 02:58:44;;;;;;;33.22;4.90;;;7.90;99.90;;;;;;5125676;27;20090;-80
2023/01/13 03:01:09;;;;;;;31.83;4.70;;;7.90;99.90;;;;;;5121366;27;20043;-80
2023/01/13 03:03:35;;;;;;;25.98;4.30;;;7.90;99.90;;;;;;5120029;27;20122;-80
2023/01/13 03:06:25;;;;;;;26.55;4.63;;;7.90;99.90;;;;;;5134335;27;20074;-81
2023/01/13 03:09:02;;;;;;;30.50;4.57;;;7.90;99.90;;;;;;5133516;27;20086;-81
2023/01/13 03:11:37;;;;;;;28.30;4.65;;;7.90;99.90;;;;;;5142997;27;20044;-81
2023/01/13 03:14:34;;;;;;;22.80;4.28;;;8.00;99.90;;;;;;5138270;27;20035;-80
2023/01/13 03:17:30;;;;;;;24.52;4.22;;;7.90;99.90;;;;;;5115718;27;20489;-80
2023/01/13 03:20:14;;;;;;;30.00;4.43;;;7.90;99.90;;;;;;5139987;27;20039;-80
2023/01/13 03:22:50;;;;;;;22.42;4.38;;;7.90;99.90;;;;;;5114465;27;20397;-80
2023/01/13 03:25:28;;;;;;;28.50;4.53;;;7.90;99.90;;;;;;5120433;27;20239;-80
2023/01/13 03:28:01;;;;;;;29.77;4.18;;;7.90;99.90;;;;;;5140680;27;20461;-80
2023/01/13 03:30:28;;;;;;;22.95;3.85;;;7.90;99.90;;;;;;5124767;27;20035;-81
2023/01/13 03:33:14;;;;;;;30.73;3.90;;;7.90;99.90;;;;;;5144171;27;20046;-80
2023/01/13 03:35:43;;;;;;;22.65;3.97;;;7.90;99.90;;;;;;5117586;27;20561;-80
2023/01/13 03:38:24;;;;;;;24.25;4.70;;;7.80;99.90;;;;;;5130658;27;20054;-81
2023/01/13 03:40:55;;;;;;;23.92;4.57;;;7.80;99.90;;;;;;5138301;27;20408;-80
2023/01/13 03:46:28;;;;;;;33.60;5.63;;;7.70;99.90;;;;;;5126499;27;20043;-80
2023/01/13 03:48:56;;;;;;;29.17;4.18;;;7.70;99.90;;;;;;5121485;27;20073;-80
2023/01/13 03:51:24;;;;;;;36.15;4.18;;;7.60;99.90;;;;;;5122501;27;20132;-80
2023/01/13 03:54:03;;;;;;;20.02;3.10;;;7.70;99.90;;;;;;5142573;27;20042;-80
2023/01/13 03:56:41;;;;;;;22.63;4.55;;;7.50;99.90;;;;;;5134595;27;20061;-80
2023/01/13 03:59:13;;;;;;;20.98;4.10;;;7.50;99.90;;;;;;5113139;27;20476;-80
2023/01/13 04:01:44;;;;;;;29.80;4.13;;;7.50;99.90;;;;;;5134415;27;20039;-80
2023/01/13 04:04:18;;;;;;;32.15;4.63;;;7.50;99.90;;;;;;5137071;27;20477;-80
2023/01/13 04:06:53;;;;;;;33.90;6.17;;;7.60;99.90;;;;;;5120890;27;20060;-80
2023/01/13 04:09:19;;;;;;;26.17;4.43;;;7.60;99.90;;;;;;5113956;27;20039;-81
2023/01/13 04:11:53;;;;;;;31.55;4.88;;;7.60;99.90;;;;;;5140181;27;20043;-80
2023/01/13 04:14:20;;;;;;;25.40;5.05;;;7.60;99.90;;;;;;5130966;27;20114;-81
2023/01/13 04:16:47;;;;;;;32.92;5.47;;;7.60;99.90;;;;;;5129784;27;20035;-80
2023/01/13 04:19:13;;;;;;;35.17;4.75;;;7.60;99.90;;;;;;5132958;27;20080;-80
2023/01/13 04:21:38;;;;;;;27.88;4.85;;;7.60;99.90;;;;;;5121812;27;20038;-80
2023/01/13 04:24:04;;;;;;;28.50;4.68;;;7.90;99.90;;;;;;5124100;27;20039;-80
2023/01/13 04:26:30;;;;;;;29.10;5.45;;;7.50;99.90;;;;;;5113181;27;20355;-81
2023/01/13 04:28:55;;;;;;;33.85;4.60;;;7.50;99.90;;;;;;5120367;27;20043;-81
2023/01/13 04:31:21;;;;;;;32.78;5.05;;;7.50;99.90;;;;;;5125741;27;20049;-80
2023/01/13 04:33:46;;;;;;;24.27;4.68;;;7.50;99.90;;;;;;5144465;27;20062;-80
2023/01/13 04:36:12;;;;;;;34.03;4.60;;;7.60;99.90;;;;;;5121229;27;20046;-81
2023/01/13 04:38:38;;;;;;;27.88;4.57;;;7.90;99.90;;;;;;5136486;27;20435;-80
2023/01/13 04:41:03;;;;;;;38.63;4.88;;;7.60;99.90;;;;;;5133742;27;20045;-80
2023/01/13 04:43:29;;;;;;;23.73;4.10;;;7.60;99.90;;;;;;5116508;27;20465;-80
2023/01/13 04:45:55;;;;;;;32.13;4.63;;;7.60;99.90;;;;;;5114999;27;20046;-80
2023/01/13 04:48:20;;;;;;;24.33;4.13;;;8.70;99.90;;;;;;5136733;27;20102;-80
2023/01/13 04:50:46;;;;;;;29.55;4.70;;;7.70;99.90;;;;;;5132402;27;20047;-80
2023/01/13 04:53:11;;;;;;;30.88;4.65;;;7.60;99.90;;;;;;5127941;27;20075;-81
2023/01/13 04:55:37;;;;;;;34.00;5.72;;;7.60;99.90;;;;;;5122998;27;20047;-81
2023/01/13 04:58:08;;;;;;;18.98;4.00;;;7.60;99.90;;;;;;5115087;27;20113;-81
2023/01/13 05:00:35;;;;;;;34.50;5.88;;;7.60;99.90;;;;;;5132186;27;20054;-80
2023/01/13 05:03:01;;;;;;;27.02;6.05;;;7.70;99.90;;;;;;5114702;27;20043;-81
2023/01/13 05:05:28;;;;;;;20.25;3.65;;;7.80;99.90;;;;;;5124217;27;20031;-80
2023/01/13 05:07:54;;;;;;;32.33;4.80;;;7.90;99.90;;;;;;5143813;27;20035;-81
2023/01/13 05:10:20;;;;;;;29.17;5.47;;;7.90;99.90;;;;;;5141578;27;20089;-81
2023/01/13 05:18:16;;;;;;;28.25;4.38;;;8.00;99.90;;;;;;5130760;27;20054;-80
2023/01/13 05:20:41;;;;;;;32.53;4.95;;;8.00;99.90;;;;;;5122848;27;20066;-81
2023/01/13 05:25:51;;;;;;;39.00;5.05;;;8.00;99.90;;;;;;5129581;27;20071;-81
2023/01/13 05:28:17;;;;;;;31.55;4.55;;;8.10;99.90;;;;;;5141058;27;20058;-81
2023/01/13 05:30:45;;;;;;;31.42;4.63;;;8.10;99.90;;;;;;5137263;27;20055;-81
2023/01/13 05:33:13;;;;;;;33.72;4.32;;;8.10;99.90;;;;;;5126704;27;20041;-80
2023/01/13 05:35:40;;;;;;;24.38;4.53;;;8.10;99.90;;;;;;5132095;27;20047;-80
2023/01/13 05:38:07;;;;;;;28.38;5.60;;;8.10;99.90;;;;;;5075375;28;20080;-81
2023/01/13 05:43:20;;;;;;;29.88;5.85;;;8.20;99.90;;;;;;5121009;27;20043;-80
2023/01/13 05:45:47;;;;;;;25.80;4.60;;;8.20;99.90;;;;;;5133718;27;20092;-80
2023/01/13 05:48:14;;;;;;;35.13;5.18;;;8.20;99.90;;;;;;5133915;27;20099;-81
2023/01/13 05:50:39;;;;;;;36.20;4.68;;;8.20;99.90;;;;;;5113035;27;20544;-80
2023/01/13 05:53:05;;;;;;;26.05;4.22;;;8.10;99.90;;;;;;5115293;27;20035;-80
2023/01/13 05:55:31;;;;;;;20.85;4.10;;;8.10;99.90;;;;;;5137457;27;20031;-80
2023/01/13 05:57:56;;;;;;;23.67;3.78;;;8.20;99.90;;;;;;5099736;27;20046;-80
2023/01/13 06:00:22;;;;;;;21.90;4.93;;;8.20;99.90;;;;;;5140350;27;20043;-80
2023/01/13 06:02:48;;;;;;;22.80;4.40;;;8.10;99.90;;;;;;5120002;27;20103;-81
2023/01/13 06:05:14;;;;;;;25.17;4.07;;;8.10;99.90;;;;;;5120631;27;20034;-80
2023/01/13 06:07:40;;;;;;;27.77;4.38;;;8.10;99.90;;;;;;5118277;27;20091;-81
2023/01/13 06:10:06;;;;;;;22.02;3.40;;;8.10;99.90;;;;;;5120073;27;20043;-81
2023/01/13 06:12:32;;;;;;;27.08;4.20;;;8.10;99.90;;;;;;5104061;27;20125;-81
2023/01/13 06:14:58;;;;;;;20.65;3.67;;;8.10;99.90;;;;;;5121306;27;20110;-80
2023/01/13 06:17:23;;;;;;;18.67;3.47;;;8.10;99.90;;;;;;5121754;27;20357;-81
2023/01/13 06:19:52;;;;;;;20.63;3.55;;;8.10;99.90;;;;;;5122921;27;20099;-80
2023/01/13 06:22:31;;;;;;;20.65;3.63;;;8.10;99.90;;;;;;5123311;27;20035;-80
2023/01/13 06:24:57;;;;;;;23.13;3.30;;;8.10;99.90;;;;;;5126912;27;20451;-80
2023/01/13 06:27:24;;;;;;;23.83;2.97;;;8.10;99.90;;;;;;5117557;27;20068;-80
2023/01/13 06:29:50;;;;;;;19.98;3.65;;;8.10;99.90;;;;;;5119521;27;20431;-80
2023/01/13 06:32:20;;;;;;;28.90;4.70;;;8.10;99.90;;;;;;5136526;27;20035;-80
2023/01/13 06:34:52;;;;;;;24.95;3.42;;;8.10;99.90;;;;;;5121426;27;20043;-81
2023/01/13 06:37:24;;;;;;;17.75;3.22;;;8.10;99.90;;;;;;5131946;27;20035;-81
2023/01/13 06:39:51;;;;;;;23.30;3.75;;;8.10;99.90;;;;;;5135686;27;20118;-81
2023/01/13 06:45:01;;;;;;;15.90;2.65;;;8.20;99.90;;;;;;5137002;27;20031;-81
2023/01/13 06:47:26;;;;;;;16.90;3.35;;;8.20;99.90;;;;;;5123341;27;20482;-80
2023/01/13 06:49:52;;;;;;;23.60;3.17;;;8.20;99.90;;;;;;5118712;27;20047;-81
2023/01/13 06:52:18;;;;;;;18.20;3.20;;;8.20;99.90;;;;;;5119440;27;20027;-81
2023/01/13 06:54:44;;;;;;;20.80;3.25;;;8.20;99.90;;;;;;5134040;27;20110;-80
2023/01/13 06:57:09;;;;;;;19.90;3.03;;;8.20;99.90;;;;;;5126086;27;20419;-81
2023/01/13 06:59:35;;;;;;;21.23;2.83;;;8.20;99.90;;;;;;5117441;27;20047;-81
2023/01/13 07:02:02;;;;;;;16.90;2.08;;;8.20;99.90;;;;;;5125115;27;20082;-81
2023/01/13 07:04:27;;;;;;;16.45;2.35;;;8.20;99.90;;;;;;5110805;27;20031;-80
2023/01/13 07:06:54;;;;;;;18.10;2.65;;;8.10;99.90;;;;;;5127528;27;20045;-79
2023/01/13 07:09:19;;;;;;;16.95;2.50;;;8.10;99.90;;;;;;5118812;27;20126;-81
2023/01/13 07:11:45;;;;;;;17.85;3.78;;;8.10;99.90;;;;;;5116637;27;20133;-81
2023/01/13 07:16:55;;;;;;;15.15;3.65;;;8.00;99.90;;;;;;5133401;27;20043;-81
2023/01/13 07:19:22;;;;;;;19.67;2.65;;;8.00;99.90;;;;;;5134111;27;20028;-81
2023/01/13 07:21:52;;;;;;;20.83;4.20;;;7.90;99.90;;;;;;5136697;27;20043;-81
2023/01/13 07:24:18;;;;;;;17.92;3.10;;;7.90;99.90;;;;;;5116880;27;20034;-82
2023/01/13 07:26:44;;;;;;;15.68;2.70;;;7.90;99.90;;;;;;5128045;27;20464;-81
2023/01/13 07:29:11;;;;;;;19.00;2.85;;;7.90;99.90;;;;;;5132506;27;20038;-81
2023/01/13 07:31:37;;;;;;;20.77;2.97;;;7.80;99.90;;;;;;5122786;27;20041;-81
2023/01/13 07:34:04;;;;;;;20.67;3.50;;;7.80;99.90;;;;;;5097023;27;20117;-81
2023/01/13 07:36:29;;;;;;;22.67;3.15;;;7.70;99.90;;;;;;5120817;27;20499;-82
2023/01/13 07:38:55;;;;;;;26.40;3.45;;;7.70;99.90;;;;;;5103652;27;20026;-81
2023/01/13 07:44:09;;;;;;;14.02;3.35;;;7.60;99.90;;;;;;5139428;27;20048;-81
2023/01/13 07:46:35;;;;;;;19.58;3.10;;;7.60;99.90;;;;;;5115300;27;20048;-82
2023/01/13 07:49:01;;;;;;;13.00;2.10;;;7.50;99.90;;;;;;5114123;27;20515;-82
2023/01/13 07:51:27;;;;;;;18.08;2.45;;;7.50;99.90;;;;;;5116099;27;20039;-82
2023/01/13 07:53:53;;;;;;;16.85;2.80;;;7.70;99.90;;;;;;5091967;27;20464;-82
2023/01/13 07:56:18;;;;;;;20.48;3.17;;;7.50;99.90;;;;;;5111688;27;20118;-81
2023/01/13 07:58:49;;;;;;;19.27;3.47;;;7.50;99.90;;;;;;5128677;27;20134;-80
2023/01/13 08:01:16;;;;;;;18.85;2.92;;;7.50;99.90;;;;;;5113131;27;20492;-80
2023/01/13 08:03:42;;;;;;;21.65;3.05;;;7.50;99.90;;;;;;5105842;27;20039;-81
2023/01/13 08:06:09;;;;;;;18.98;3.15;;;7.50;99.90;;;;;;5113978;27;20043;-80
2023/01/13 08:08:35;;;;;;;14.73;2.78;;;7.50;99.90;;;;;;5125959;27;20071;-80
2023/01/13 08:11:02;;;;;;;21.70;3.90;;;7.50;99.90;;;;;;5130908;27;20039;-81
2023/01/13 08:13:28;;;;;;;23.27;3.80;;;7.50;99.90;;;;;;5119800;27;20143;-80
2023/01/13 08:16:03;;;;;;;22.45;3.45;;;7.50;99.90;;;;;;5118482;27;20039;-82
2023/01/13 08:18:30;;;;;;;28.45;4.70;;;7.50;99.90;;;;;;5134806;27;20085;-82
2023/01/13 08:21:01;;;;;;;21.83;3.50;;;7.50;99.90;;;;;;5084882;28;20046;-82
2023/01/13 08:23:27;;;;;;;28.83;3.83;;;7.50;99.90;;;;;;5091077;27;20071;-81
2023/01/13 08:25:52;;;;;;;17.00;3.65;;;7.50;99.90;;;;;;5116965;27;20059;-81
2023/01/13 08:28:19;;;;;;;23.27;3.40;;;7.60;99.90;;;;;;5090638;27;20042;-81
2023/01/13 08:30:44;;;;;;;17.25;3.08;;;7.60;99.90;;;;;;5110027;27;20568;-80
2023/01/13 08:33:11;;;;;;;21.50;3.40;;;7.60;99.90;;;;;;5133845;27;20381;-81
2023/01/13 08:35:41;;;;;;;14.88;3.72;;;7.60;99.90;;;;;;5099959;27;20047;-81
2023/01/13 08:38:08;;;;;;;24.00;3.70;;;7.70;99.90;;;;;;5116517;27;20035;-80
2023/01/13 08:40:34;;;;;;;24.45;3.13;;;7.70;99.90;;;;;;5130425;27;20134;-81
2023/01/13 08:43:00;;;;;;;23.88;3.88;;;7.70;99.90;;;;;;5129054;27;20125;-81
2023/01/13 08:45:26;;;;;;;23.98;3.80;;;7.70;99.90;;;;;;5113761;27;20126;-81
2023/01/13 08:47:51;;;;;;;22.95;3.25;;;7.80;99.90;;;;;;5127603;27;20050;-81
2023/01/13 08:50:18;;;;;;;25.88;3.35;;;7.80;99.90;;;;;;5108197;27;20035;-79
2023/01/13 08:52:43;;;;;;;19.08;3.13;;;7.80;99.90;;;;;;5096130;27;20031;-80
2023/01/13 08:55:10;;;;;;;30.33;3.95;;;7.80;99.90;;;;;;5098525;27;20031;-80
2023/01/13 08:57:36;;;;;;;13.75;2.88;;;7.70;99.90;;;;;;5104916;27;20189;-80
2023/01/13 09:00:04;;;;;;;30.38;4.45;;;7.90;99.90;;;;;;5140946;27;20122;-80
2023/01/13 09:02:30;;;;;;;20.90;3.17;;;7.90;99.90;;;;;;5107275;27;20096;-80
2023/01/13 09:04:55;;;;;;;21.27;3.47;;;7.90;99.90;;;;;;5132642;27;20038;-81
2023/01/13 09:07:21;;;;;;;28.52;3.97;;;7.90;99.90;;;;;;5136663;27;20035;-81
2023/01/13 09:09:47;;;;;;;21.92;3.65;;;7.90;99.90;;;;;;5116233;27;20079;-81
2023/01/13 09:14:59;;;;;;;19.73;3.28;;;7.90;99.90;;;;;;5117456;27;20035;-82
2023/01/13 09:17:26;;;;;;;22.15;3.60;;;7.90;99.90;;;;;;5116603;27;20035;-81
2023/01/13 09:19:52;;;;;;;20.50;3.55;;;7.80;99.90;;;;;;5128250;27;20027;-81
2023/01/13 09:22:19;;;;;;;23.13;4.07;;;7.80;99.90;;;;;;5113886;27;20039;-82
2023/01/13 09:24:45;;;;;;;26.08;3.63;;;7.80;99.90;;;;;;5140948;27;20043;-81
2023/01/13 09:27:13;;;;;;;21.75;3.42;;;7.80;99.90;;;;;;5086295;27;20031;-80
2023/01/13 09:29:39;;;;;;;20.02;4.05;;;7.80;99.90;;;;;;5096474;27;20050;-82
2023/01/13 09:32:05;;;;;;;21.83;3.97;;;7.80;99.90;;;;;;5119057;27;20034;-81
2023/01/13 09:37:15;;;;;;;;;;;7.70;99.90;;;;;;5113910;27;20062;-80
2023/01/13 09:39:41;;;;;;;16.40;2.83;;;7.60;99.90;;;;;;5115223;27;20314;-81
2023/01/13 09:45:21;;;;;;;22.95;3.20;;;7.50;99.90;;;;;;5130542;27;20111;-80
2023/01/13 09:47:55;;;;;;;24.05;4.20;;;7.50;99.90;;;;;;5112489;27;20065;-81
2023/01/13 09:50:44;;;;;;;;;;;7.50;99.90;;;;;;5138754;27;20043;-81
2023/01/13 09:53:18;;;;;;;22.38;4.28;;;7.50;99.90;;;;;;5114064;27;19915;-81
2023/01/13 09:55:44;;;;;;;27.33;3.90;;;7.50;99.90;;;;;;5137146;27;20031;-80
2023/01/13 09:58:15;;;;;;;26.38;3.50;;;7.40;99.90;;;;;;5125683;27;20096;-80
2023/01/13 10:00:55;;;;;;;22.58;3.45;;;7.50;99.90;;;;;;5128414;27;20055;-81
2023/01/13 10:03:29;;;;;;;28.58;4.18;;;7.40;99.90;;;;;;5108887;27;20042;-80
2023/01/13 10:06:23;;;;;;;20.05;3.67;;;7.50;99.90;;;;;;5134041;27;20092;-81
2023/01/13 10:08:49;;;;;;;20.33;3.63;;;7.50;99.90;;;;;;5134053;27;20050;-81
2023/01/13 10:14:19;;;;;;;19.67;4.68;;;7.50;99.90;;;;;;5130629;27;20088;-80
2023/01/13 10:17:16;;;;;;;27.95;3.85;;;7.60;99.90;;;;;;5112763;27;20474;-80
2023/01/13 10:19:45;;;;;;;25.90;5.22;;;7.60;99.90;;;;;;5134765;27;20044;-81
2023/01/13 10:22:35;;;;;;;27.98;4.25;;;7.50;99.90;;;;;;5128600;27;20106;-80
2023/01/13 10:25:19;;;;;;;24.73;3.20;;;7.50;99.90;;;;;;5110294;27;20443;-80
2023/01/13 10:27:49;;;;;;;21.35;3.70;;;7.50;99.90;;;;;;5125735;27;20093;-79
2023/01/13 10:30:15;;;;;;;24.63;3.15;;;7.50;99.90;;;;;;5136344;27;20077;-80
2023/01/13 10:32:45;;;;;;;18.17;3.05;;;7.50;99.90;;;;;;5118261;27;20138;-80
2023/01/13 10:35:10;;;;;;;22.73;2.92;;;7.60;99.90;;;;;;5095088;27;20043;-80
2023/01/13 10:37:36;;;;;;;17.65;3.00;;;7.50;99.90;;;;;;5114812;27;20431;-80
2023/01/13 10:40:06;;;;;;;20.65;2.42;;;7.60;99.90;;;;;;5126090;27;20294;-80
2023/01/13 10:42:32;;;;;;;18.80;3.20;;;7.50;99.90;;;;;;5126828;27;20118;-80
2023/01/13 10:44:59;;;;;;;17.70;3.28;;;7.60;99.90;;;;;;5109433;27;20122;-80
2023/01/13 10:47:26;;;;;;;22.50;3.03;;;7.60;99.90;;;;;;5116785;27;20062;-80
2023/01/13 10:50:20;;;;;;;22.85;4.95;;;7.60;99.90;;;;;;5111882;27;20047;-80
2023/01/13 10:53:20;;;;;;;24.25;3.55;;;7.60;99.90;;;;;;5112596;27;20039;-81
2023/01/13 10:55:59;;;;;;;20.02;2.95;;;7.70;99.90;;;;;;5107431;27;20043;-80
2023/01/13 10:58:25;;;;;;;18.70;2.83;;;7.70;99.90;;;;;;5143502;27;20038;-79
2023/01/13 11:01:00;;;;;;;18.40;3.00;;;7.70;99.90;;;;;;5138325;27;20042;-80
2023/01/13 11:03:40;;;;;;;22.23;3.13;;;7.70;99.90;;;;;;5119507;27;20126;-81
2023/01/13 11:06:07;;;;;;;21.73;3.17;;;7.70;99.90;;;;;;5111942;27;20100;-80
2023/01/13 11:08:48;;;;;;;21.75;2.80;;;7.70;99.90;;;;;;5127300;27;20042;-81
2023/01/13 11:11:35;;;;;;;24.23;3.35;;;7.80;99.90;;;;;;5116109;27;20624;-81
2023/01/13 11:16:53;;;;;;;15.02;3.05;;;7.80;99.90;;;;;;5113434;27;20442;-80
2023/01/13 11:19:22;;;;;;;14.15;2.97;;;7.80;99.90;;;;;;5110452;27;20064;-80
2023/01/13 11:21:54;;;;;;;18.52;2.95;;;7.90;99.90;;;;;;5106337;27;20124;-81
2023/01/13 11:25:00;;;;;;;18.63;2.63;;;7.90;99.90;;;;;;5116885;27;20531;-81
2023/01/13 11:27:51;;;;;;;18.13;3.20;;;8.00;99.90;;;;;;5114455;27;20042;-81
2023/01/13 11:30:24;;;;;;;20.10;2.88;;;8.00;99.90;;;;;;5131069;27;20046;-81
2023/01/13 11:32:59;;;;;;;19.10;2.67;;;7.90;99.90;;;;;;5120102;27;20110;-81
2023/01/13 11:35:25;;;;;;;18.70;3.05;;;7.90;99.90;;;;;;5102818;27;20066;-80
2023/01/13 11:38:00;;;;;;;26.35;3.80;;;7.90;99.90;;;;;;5129398;27;20486;-81
2023/01/13 11:40:49;;;;;;;19.60;4.10;;;7.90;99.90;;;;;;5096918;27;20117;-80
2023/01/13 11:43:41;;;;;;;15.02;2.67;;;7.90;99.90;;;;;;5117035;27;20047;-81
2023/01/13 11:46:08;;;;;;;15.50;2.38;;;7.90;99.90;;;;;;5122010;27;20502;-79
2023/01/13 11:48:40;;;;;;;18.60;2.50;;;8.00;99.90;;;;;;5114940;27;20087;-80
2023/01/13 11:51:30;;;;;;;13.57;2.05;;;8.00;99.90;;;;;;5113331;27;20092;-81
2023/01/13 11:54:21;;;;;;;20.10;2.55;;;8.00;99.90;;;;;;5122446;27;20039;-80
2023/01/13 11:56:57;;;;;;;16.75;2.25;;;8.10;99.90;;;;;;5110159;27;20381;-80
2023/01/13 11:59:41;;;;;;;14.95;2.22;;;8.10;99.90;;;;;;5133431;27;20046;-80
2023/01/13 12:02:43;;;;;;;15.23;2.78;;;8.10;99.90;;;;;;5133330;27;20038;-80
2023/01/13 12:05:25;;;;;;;13.63;2.83;;;8.20;99.90;;;;;;5110915;27;20095;-80
2023/01/13 12:07:51;;;;;;;14.43;2.85;;;8.20;99.90;;;;;;5146790;27;20042;-80
2023/01/13 12:10:34;;;;;;;19.00;3.45;;;8.20;99.90;;;;;;5122703;27;20031;-80
2023/01/13 12:13:25;;;;;;;16.67;2.90;;;8.20;99.90;;;;;;5119747;27;20050;-80
2023/01/13 12:16:17;;;;;;;17.02;2.33;;;8.20;99.90;;;;;;5130885;27;20038;-82
2023/01/13 12:19:09;;;;;;;15.35;2.85;;;8.20;99.90;;;;;;5128214;27;20535;-81
2023/01/13 12:21:40;;;;;;;15.93;2.55;;;8.20;99.90;;;;;;5130074;27;20103;-81
2023/01/13 12:24:15;;;;;;;14.93;2.42;;;8.10;99.90;;;;;;5118575;27;20051;-81
2023/01/13 12:26:48;;;;;;;16.20;3.03;;;8.20;99.90;;;;;;5118490;27;20046;-81
2023/01/13 12:29:18;;;;;;;18.17;3.45;;;8.20;99.90;;;;;;5127977;27;20038;-81
2023/01/13 12:31:47;;;;;;;14.82;2.15;;;8.20;99.90;;;;;;5120930;27;20062;-81
2023/01/13 12:34:29;;;;;;;12.27;2.25;;;8.30;99.90;;;;;;5123282;27;20132;-80
2023/01/13 12:37:25;;;;;;;13.45;2.63;;;8.30;99.90;;;;;;5107588;27;20035;-80
2023/01/13 12:40:14;;;;;;;14.07;2.83;;;8.30;99.90;;;;;;5094951;27;20043;-80
2023/01/13 12:45:29;;;;;;;15.20;2.05;;;8.40;99.90;;;;;;5130248;27;20143;-80
2023/01/13 12:47:56;;;;;;;10.65;1.90;;;8.40;99.90;;;;;;5101808;27;20053;-81
2023/01/13 12:50:24;;;;;;;12.48;2.47;;;8.40;99.90;;;;;;5106789;27;20086;-80
2023/01/13 12:52:58;;;;;;;13.73;2.13;;;8.40;99.90;;;;;;5105491;27;20036;-80
2023/01/13 12:55:25;;;;;;;14.82;3.17;;;8.50;99.90;;;;;;5120519;27;20043;-80
2023/01/13 12:58:08;;;;;;;13.13;1.95;;;8.50;99.90;;;;;;5115937;27;20093;-80
2023/01/13 13:00:59;;;;;;;8.93;1.73;;;8.50;99.90;;;;;;5137981;27;20039;-81
2023/01/13 13:03:33;;;;;;;15.20;1.60;;;8.60;99.90;;;;;;5129733;27;20042;-81
2023/01/13 13:06:36;;;;;;;12.07;1.65;;;8.50;99.90;;;;;;5112671;27;20054;-81
2023/01/13 13:09:21;;;;;;;20.17;1.98;;;8.60;99.90;;;;;;4995978;28;20042;-81
2023/01/13 13:14:40;;;;;;;14.05;2.10;;;8.60;99.90;;;;;;5010124;28;20072;-81
2023/01/13 13:17:24;;;;;;;15.52;2.88;;;8.60;99.90;;;;;;5007737;28;20052;-81
2023/01/13 13:19:51;;;;;;;11.57;2.20;;;8.60;99.90;;;;;;5028352;28;20125;-81
2023/01/13 13:22:19;;;;;;;13.52;2.08;;;8.60;99.90;;;;;;5012104;28;20120;-81
2023/01/13 13:24:48;;;;;;;14.07;1.85;;;8.60;99.90;;;;;;5027315;28;20058;-81
2023/01/13 13:28:04;;;;;;;15.23;1.58;;;8.50;99.90;;;;;;5017435;28;20466;-83
2023/01/13 13:30:38;;;;;;;12.32;1.73;;;8.50;99.90;;;;;;5005415;28;20049;-81
2023/01/13 13:33:15;;;;;;;14.40;2.50;;;8.50;99.90;;;;;;5014149;28;20083;-82
2023/01/13 13:36:07;;;;;;;12.57;2.05;;;8.40;99.90;;;;;;5020911;28;20308;-81
2023/01/13 13:47:39;;;;;;;10.52;1.88;;;8.70;99.90;;;;;;5113777;27;20395;-81
2023/01/13 13:50:13;;;;;;;20.15;2.35;;;8.70;99.90;;;;;;5107150;28;20058;-81
2023/01/13 13:52:42;;;;;;;;;;;8.70;99.90;;;;;;5114646;28;20181;-81
2023/01/13 13:55:20;;;;;;;9.40;1.48;;;8.70;99.90;;;;;;5114483;28;21115;-82
2023/01/13 13:57:51;;;;;;;11.70;1.70;;;8.70;99.90;;;;;;5111906;28;20036;-82
2023/01/13 14:00:27;;;;;;;14.98;2.10;;;8.70;99.90;;;;;;5088492;28;20039;-81
2023/01/13 14:02:57;;;;;;;11.80;1.48;;;8.70;99.90;;;;;;5108520;28;20092;-82
2023/01/13 14:05:31;;;;;;;12.85;3.00;;;8.80;99.90;;;;;;5116713;28;20035;-81
2023/01/13 14:08:17;;;;;;;6.80;1.63;;;8.80;99.90;;;;;;5089970;28;20037;-81
2023/01/13 14:10:44;;;;;;;9.27;1.40;;;8.80;99.90;;;;;;5101357;28;20112;-82